To NAV CANADA Home Page Login to a new session Search on AWWS site Feedback and Comments Disclaimer Vers la page française équivalente Tips FAQ What's new on the site To the Forecasts and Observations / NOTAM section To "File a Flight Plan" website Publications and other links Update of the User's profile FIC Telephone Numbers My Weather Data Folder Route Weather Data Regional Weather Data Local Weather Data To the Forecasts and Observations / NOTAM section
Request Generated 01/21/2017 at 02:12:35 UTC . Weather information available at that time is displayed.

METAR/TAF

FREDERICTON INTL/NB    (show WxCam)

METAR CYFC 210200Z AUTO 00000KT 9SM OVC024 M03/M04 A2995 RMK SLP145=
METAR CYFC 210100Z AUTO 14002KT 9SM OVC024 M02/M04 A2996 RMK SLP148=
METAR CYFC 210000Z AUTO 13004KT 9SM OVC024 M02/M04 A2996 RMK SLP149=

TAF CYFC 202338Z 2100/2112 09005KT P6SM OVC020 TEMPO 2100/2105 OVC025
FM210500 VRB03KT P6SM BKN020 BKN100
RMK FCST BASED ON AUTO OBS. NXT FCST BY 210600Z=
Your time UTC time
Weather data provided by Environment Canada and NAV CANADA